Time;durP1;ratioP1;P1;durP2;ratioP2;P2;SDS_P1;SDS_P2;PMS_P1;PMS_P2;Temp;Humidity;BMP_temperature;BMP_pressure;BME280_temperature;BME280_humidity;BME280_pressure;Samples;Min_cycle;Max_cycle;Signal;HPM_P1;HPM_P2
2022/07/15 00:01:42;;;;;;;0.00;0.00;;;;;;;19.75;53.78;101980.06;7346663;19;21008;-62
2022/07/15 00:04:09;;;;;;;0.03;0.03;;;;;;;19.74;53.65;101978.34;7349638;19;20010;-61
2022/07/15 00:06:35;;;;;;;0.00;0.00;;;;;;;19.70;53.51;101977.59;7351288;19;20015;-62
2022/07/15 00:09:00;;;;;;;0.03;0.03;;;;;;;19.67;53.68;101976.88;7352480;19;20653;-61
2022/07/15 00:11:26;;;;;;;0.00;0.00;;;;;;;19.62;54.26;101974.41;7349181;19;20844;-62
2022/07/15 00:13:51;;;;;;;0.00;0.00;;;;;;;19.59;53.87;101974.53;7353960;19;20461;-61
2022/07/15 00:16:16;;;;;;;0.00;0.00;;;;;;;19.57;54.10;101964.88;7351035;19;20010;-62
2022/07/15 00:18:42;;;;;;;0.00;0.00;;;;;;;19.22;54.49;101916.81;7352498;19;20014;-62
2022/07/15 00:21:08;;;;;;;0.00;0.00;;;;;;;19.51;54.56;101965.09;7350489;19;20577;-62
2022/07/15 00:23:33;;;;;;;0.00;0.00;;;;;;;19.45;54.16;101966.22;7349491;19;20027;-61
2022/07/15 00:25:59;;;;;;;0.00;0.00;;;;;;;19.39;54.34;101962.03;7351044;19;20006;-62
2022/07/15 00:28:24;;;;;;;0.00;0.00;;;;;;;19.38;54.31;101962.09;7350415;19;20022;-62
2022/07/15 00:30:50;;;;;;;0.00;0.00;;;;;;;19.23;54.52;101945.03;7348708;19;20042;-62
2022/07/15 00:33:16;;;;;;;0.10;0.10;;;;;;;19.21;54.50;101946.00;7351911;19;20150;-62
2022/07/15 00:35:41;;;;;;;0.00;0.00;;;;;;;19.22;54.32;101953.91;7352104;19;20105;-61
2022/07/15 00:38:09;;;;;;;0.10;0.10;;;;;;;19.18;55.07;101950.50;7349203;19;20051;-62
2022/07/15 00:41:01;;;;;;;0.00;0.00;;;;;;;19.14;52.17;101940.06;7351933;19;20840;-61
2022/07/15 00:43:27;;;;;;;0.00;0.00;;;;;;;19.06;54.90;101942.13;7248568;19;2004584;-62
2022/07/15 00:45:52;;;;;;;0.00;0.00;;;;;;;19.03;55.28;101947.56;7350889;19;20030;-61
2022/07/15 00:48:18;;;;;;;0.00;0.00;;;;;;;18.99;55.24;101940.66;7350554;19;20102;-62
2022/07/15 00:50:43;;;;;;;0.00;0.00;;;;;;;18.95;55.46;101936.41;7348656;19;20022;-62
2022/07/15 00:53:19;;;;;;;0.00;0.00;;;;;;;18.91;54.31;101928.59;7349215;19;20011;-62
2022/07/15 00:55:46;;;;;;;0.00;0.00;;;;;;;18.81;55.81;101927.22;7350096;19;20019;-61
2022/07/15 00:58:16;;;;;;;0.10;0.10;;;;;;;18.74;55.11;101922.19;7347903;19;20035;-62
2022/07/15 01:00:44;;;;;;;0.00;0.00;;;;;;;18.79;55.82;101929.03;7350313;19;20006;-61
2022/07/15 01:03:10;;;;;;;0.00;0.00;;;;;;;18.75;55.83;101929.22;7349540;19;20897;-61
2022/07/15 01:05:37;;;;;;;0.00;0.00;;;;;;;18.65;55.64;101918.97;7350684;19;20849;-62
2022/07/15 01:08:03;;;;;;;0.00;0.00;;;;;;;18.65;56.01;101928.66;7349406;19;20047;-62
2022/07/15 01:10:29;;;;;;;0.00;0.00;;;;;;;18.59;55.97;101916.50;7349228;19;20019;-62
2022/07/15 01:12:55;;;;;;;0.00;0.00;;;;;;;18.55;56.09;101914.03;7349552;19;20003;-61
2022/07/15 01:15:20;;;;;;;0.00;0.00;;;;;;;18.50;55.96;101908.94;7351151;19;21012;-61
2022/07/15 01:17:46;;;;;;;0.00;0.00;;;;;;;18.45;56.24;101902.06;7347507;19;20006;-62
2022/07/15 01:20:13;;;;;;;0.00;0.00;;;;;;;18.40;56.74;101907.53;7350651;19;20017;-62
2022/07/15 01:22:39;;;;;;;0.00;0.00;;;;;;;18.35;56.49;101902.41;7348730;19;20098;-62
2022/07/15 01:25:05;;;;;;;0.10;0.10;;;;;;;18.32;55.90;101899.88;7349784;19;21604;-62
2022/07/15 01:27:32;;;;;;;0.10;0.10;;;;;;;18.19;56.93;101888.00;7349786;19;20843;-62
2022/07/15 01:29:59;;;;;;;0.00;0.00;;;;;;;18.19;56.83;101885.34;7348047;19;20026;-61
2022/07/15 01:32:25;;;;;;;0.00;0.00;;;;;;;18.20;56.62;101881.81;7350315;19;20013;-62
2022/07/15 01:34:51;;;;;;;0.00;0.00;;;;;;;18.23;57.37;101884.31;7348004;19;20470;-62
2022/07/15 01:37:17;;;;;;;0.00;0.00;;;;;;;18.21;57.29;101883.53;7349909;19;20010;-62
2022/07/15 01:39:43;;;;;;;0.10;0.10;;;;;;;18.22;57.54;101887.91;7347459;19;20014;-61
2022/07/15 01:42:08;;;;;;;0.03;0.03;;;;;;;18.20;57.64;101875.63;7349720;19;20078;-62
2022/07/15 01:44:34;;;;;;;0.10;0.10;;;;;;;18.22;57.60;101874.69;7344746;19;20022;-62
2022/07/15 01:46:59;;;;;;;0.00;0.00;;;;;;;18.20;57.80;101873.88;7351523;19;20014;-62
2022/07/15 01:49:25;;;;;;;0.00;0.00;;;;;;;18.21;57.48;101878.25;7346815;19;20003;-61
2022/07/15 01:51:55;;;;;;;0.08;0.08;;;;;;;18.20;57.29;101873.00;7349911;19;20472;-61
2022/07/15 01:54:22;;;;;;;0.00;0.00;;;;;;;18.15;57.63;101878.47;7347204;19;20584;-62
2022/07/15 01:56:50;;;;;;;0.10;0.10;;;;;;;18.03;57.61;101860.38;7345713;19;20031;-62
2022/07/15 01:59:16;;;;;;;0.00;0.00;;;;;;;18.02;58.05;101862.16;7350479;19;20014;-61
2022/07/15 02:01:42;;;;;;;0.00;0.00;;;;;;;18.03;58.01;101876.25;7365569;19;20039;-62
2022/07/15 02:04:08;;;;;;;0.10;0.10;;;;;;;17.98;58.58;101870.25;7368583;19;20090;-62
2022/07/15 02:06:34;;;;;;;0.00;0.00;;;;;;;17.87;58.04;101858.28;7366410;19;20079;-61
2022/07/15 02:08:59;;;;;;;0.00;0.00;;;;;;;17.91;58.66;101874.03;7368617;19;20006;-62
2022/07/15 02:11:25;;;;;;;0.08;0.08;;;;;;;17.85;58.68;101873.34;7367197;19;20006;-62
2022/07/15 02:13:53;;;;;;;0.05;0.05;;;;;;;17.81;58.22;101862.91;7368329;19;20438;-61
2022/07/15 02:16:19;;;;;;;0.10;0.10;;;;;;;17.82;58.84;101873.44;7364915;19;20392;-62
2022/07/15 02:18:44;;;;;;;0.00;0.00;;;;;;;17.71;59.46;101851.75;7369761;19;20078;-61
2022/07/15 02:21:10;;;;;;;0.08;0.08;;;;;;;17.81;59.31;101869.06;7368057;19;20010;-62
2022/07/15 02:23:35;;;;;;;0.00;0.00;;;;;;;17.81;59.48;101874.34;7367895;19;20020;-62
2022/07/15 02:26:01;;;;;;;0.00;0.00;;;;;;;17.71;59.42;101857.03;7366621;19;20369;-62
2022/07/15 02:28:26;;;;;;;0.08;0.08;;;;;;;17.82;59.51;101865.50;7367246;19;20028;-62
2022/07/15 02:30:51;;;;;;;0.00;0.00;;;;;;;17.83;59.37;101872.50;7362509;19;20010;-62
2022/07/15 02:33:17;;;;;;;0.00;0.00;;;;;;;17.84;59.29;101868.97;7367743;19;20014;-62
2022/07/15 02:35:43;;;;;;;0.00;0.00;;;;;;;17.85;59.61;101870.69;7367529;19;20031;-61
2022/07/15 02:38:08;;;;;;;0.00;0.00;;;;;;;17.88;59.67;101870.56;7365992;19;20023;-62
2022/07/15 02:40:33;;;;;;;0.00;0.00;;;;;;;17.89;59.79;101867.03;7366054;19;20462;-62
2022/07/15 02:43:01;;;;;;;0.00;0.00;;;;;;;17.92;59.14;101859.91;7364991;19;20022;-62
2022/07/15 02:45:29;;;;;;;0.00;0.00;;;;;;;17.92;59.55;101870.47;7362058;19;20086;-61
2022/07/15 02:47:54;;;;;;;0.00;0.00;;;;;;;17.91;59.99;101858.19;7367095;19;20007;-62
2022/07/15 02:50:21;;;;;;;0.05;0.05;;;;;;;17.91;59.90;101858.19;7363602;19;20015;-61
2022/07/15 02:52:47;;;;;;;0.00;0.00;;;;;;;17.91;60.02;101864.31;7365695;19;20323;-61
2022/07/15 02:55:14;;;;;;;0.00;0.00;;;;;;;17.93;59.83;101877.47;7365054;19;20672;-62
2022/07/15 02:57:40;;;;;;;0.00;0.00;;;;;;;17.92;59.67;101860.75;7366362;19;20021;-62
2022/07/15 03:00:11;;;;;;;0.00;0.00;;;;;;;17.94;60.24;101860.69;7368189;19;20423;-62
2022/07/15 03:02:37;;;;;;;0.10;0.10;;;;;;;17.94;59.35;101858.06;7364298;19;20026;-61
2022/07/15 03:05:03;;;;;;;0.10;0.10;;;;;;;17.95;60.22;101849.22;7355377;19;20031;-61
2022/07/15 03:07:29;;;;;;;0.00;0.00;;;;;;;17.95;60.46;101857.16;7367494;19;20086;-62
2022/07/15 03:09:55;;;;;;;0.00;0.00;;;;;;;17.95;60.23;101851.88;7366155;19;20043;-62
2022/07/15 03:12:20;;;;;;;0.00;0.00;;;;;;;17.95;60.33;101838.66;7365861;19;20010;-62
2022/07/15 03:14:46;;;;;;;0.00;0.00;;;;;;;17.95;60.40;101843.94;7367061;19;20014;-61
2022/07/15 03:17:11;;;;;;;0.08;0.08;;;;;;;17.94;59.97;101836.91;7363764;19;20007;-62
2022/07/15 03:19:37;;;;;;;0.05;0.05;;;;;;;17.93;59.88;101837.84;7355032;19;21241;-62
2022/07/15 03:22:02;;;;;;;0.00;0.00;;;;;;;17.91;60.37;101847.59;7362890;19;20085;-61
2022/07/15 03:24:28;;;;;;;0.00;0.00;;;;;;;17.86;60.33;101838.06;7366988;19;20006;-62
2022/07/15 03:26:53;;;;;;;0.03;0.03;;;;;;;17.83;60.37;101840.78;7364605;19;20480;-62
2022/07/15 03:29:19;;;;;;;0.00;0.00;;;;;;;17.77;60.11;101846.28;7364295;19;20025;-62
2022/07/15 03:31:44;;;;;;;0.08;0.08;;;;;;;17.69;60.17;101837.75;7366496;19;20026;-61
2022/07/15 03:34:10;;;;;;;0.10;0.10;;;;;;;17.75;60.94;101848.16;7367959;19;20059;-61
2022/07/15 03:36:37;;;;;;;0.10;0.10;;;;;;;17.73;60.96;101849.94;7367136;19;20464;-62
2022/07/15 03:39:03;;;;;;;0.00;0.00;;;;;;;17.72;60.70;101842.91;7367404;19;20022;-62
2022/07/15 03:41:29;;;;;;;0.05;0.05;;;;;;;17.72;60.79;101834.13;7367665;19;20017;-62
2022/07/15 03:43:55;;;;;;;0.00;0.00;;;;;;;17.62;60.68;101823.00;7366307;19;21635;-62
2022/07/15 03:46:20;;;;;;;0.00;0.00;;;;;;;17.72;60.48;101842.91;7367359;19;20394;-61
2022/07/15 03:48:46;;;;;;;0.00;0.00;;;;;;;17.71;60.28;101838.56;7365628;19;20592;-62
2022/07/15 03:51:11;;;;;;;0.00;0.00;;;;;;;17.70;60.36;101835.97;7363580;19;20082;-62
2022/07/15 03:53:36;;;;;;;0.00;0.00;;;;;;;17.57;60.67;101822.31;7366689;19;20015;-62
2022/07/15 03:56:02;;;;;;;0.00;0.00;;;;;;;17.68;60.55;101830.72;7365900;19;20017;-62
2022/07/15 03:58:27;;;;;;;0.00;0.00;;;;;;;17.64;60.67;101829.13;7368612;19;20418;-61
2022/07/15 04:00:53;;;;;;;0.00;0.00;;;;;;;17.63;60.59;101827.38;7366428;19;20078;-61
2022/07/15 04:03:18;;;;;;;0.00;0.00;;;;;;;17.62;60.85;101826.50;7366688;19;20425;-62
2022/07/15 04:05:44;;;;;;;0.10;0.10;;;;;;;17.51;60.87;101807.53;7366012;19;20006;-62
2022/07/15 04:08:10;;;;;;;0.10;0.10;;;;;;;17.62;60.61;101828.28;7365052;19;20006;-61
2022/07/15 04:10:36;;;;;;;0.10;0.10;;;;;;;17.61;59.99;101824.78;7366557;19;20041;-61
2022/07/15 04:13:02;;;;;;;0.00;0.00;;;;;;;17.63;61.03;101832.66;7365656;19;20454;-62
2022/07/15 04:15:28;;;;;;;0.00;0.00;;;;;;;17.52;60.72;101808.41;7365817;19;20089;-62
2022/07/15 04:17:53;;;;;;;0.00;0.00;;;;;;;17.64;60.13;101829.13;7365748;19;20086;-61
2022/07/15 04:20:19;;;;;;;0.00;0.00;;;;;;;17.62;60.72;101838.88;7365564;19;20010;-62
2022/07/15 04:22:48;;;;;;;0.00;0.00;;;;;;;17.63;61.43;101832.66;7367638;19;20020;-62
2022/07/15 04:25:16;;;;;;;0.03;0.03;;;;;;;17.63;61.23;101837.94;7364645;19;20022;-62
2022/07/15 04:27:42;;;;;;;;;;;;;;;17.67;57.79;101836.94;7365192;19;20007;-61
2022/07/15 04:30:08;;;;;;;0.00;0.00;;;;;;;17.65;61.43;101836.13;7365894;19;19927;-62
2022/07/15 04:32:34;;;;;;;0.00;0.00;;;;;;;17.66;60.92;101832.56;7365103;19;20010;-61
2022/07/15 04:35:00;;;;;;;0.00;0.00;;;;;;;17.60;61.85;101816.94;7366480;19;20020;-61
2022/07/15 04:37:25;;;;;;;0.10;0.10;;;;;;;17.67;61.70;101834.28;7363371;19;20018;-62
2022/07/15 04:39:50;;;;;;;0.10;0.10;;;;;;;17.68;61.53;101833.38;7365959;19;20039;-61
2022/07/15 04:42:16;;;;;;;0.10;0.10;;;;;;;17.68;61.48;101825.44;7364917;19;20010;-62
2022/07/15 04:44:41;;;;;;;0.00;0.00;;;;;;;17.68;61.46;101830.72;7364745;19;20019;-62
2022/07/15 04:47:07;;;;;;;0.00;0.00;;;;;;;17.66;61.79;101824.66;7365228;19;20022;-62
2022/07/15 04:52:16;;;;;;;0.10;0.10;;;;;;;17.61;61.84;101823.94;7364519;19;20020;-62
2022/07/15 04:54:43;;;;;;;0.00;0.00;;;;;;;17.59;61.96;101828.41;7363942;19;23017;-62
2022/07/15 04:57:09;;;;;;;0.00;0.00;;;;;;;17.57;61.87;101827.59;7364364;19;20022;-61
2022/07/15 04:59:34;;;;;;;0.00;0.00;;;;;;;17.44;62.29;101810.44;7364705;19;20021;-62
2022/07/15 05:01:59;;;;;;;0.08;0.08;;;;;;;17.57;62.48;101827.59;7363819;19;20097;-62
2022/07/15 05:04:26;;;;;;;0.00;0.00;;;;;;;17.58;62.44;101826.66;7365581;19;20069;-62
2022/07/15 05:06:51;;;;;;;0.00;0.00;;;;;;;17.60;62.19;101823.06;7364296;19;20014;-62
2022/07/15 05:09:17;;;;;;;0.00;0.00;;;;;;;17.63;62.45;101824.72;7364160;19;20035;-62
2022/07/15 05:11:43;;;;;;;0.00;0.00;;;;;;;17.67;62.38;101829.00;7362615;19;20027;-61
2022/07/15 05:14:08;;;;;;;0.00;0.00;;;;;;;17.70;62.34;101823.63;7364788;19;20035;-62
2022/07/15 05:16:33;;;;;;;0.10;0.10;;;;;;;17.74;62.51;101824.41;7363618;19;20477;-62
2022/07/15 05:18:59;;;;;;;0.00;0.00;;;;;;;17.80;62.62;101830.34;7361631;19;20077;-62
2022/07/15 05:21:24;;;;;;;0.10;0.10;;;;;;;17.82;62.12;101815.28;7363664;19;20010;-62
2022/07/15 05:23:50;;;;;;;0.00;0.00;;;;;;;17.87;62.13;101805.44;7365083;19;20006;-62
2022/07/15 05:26:15;;;;;;;0.08;0.08;;;;;;;17.87;62.44;101804.56;7362380;19;20010;-61
2022/07/15 05:28:41;;;;;;;0.08;0.08;;;;;;;17.95;62.08;101807.81;7364029;19;20019;-62
2022/07/15 05:31:07;;;;;;;0.00;0.00;;;;;;;17.97;62.51;101810.38;7361253;19;20011;-61
2022/07/15 05:33:32;;;;;;;0.08;0.08;;;;;;;17.98;62.99;101810.31;7364643;19;20018;-62
2022/07/15 05:35:58;;;;;;;0.00;0.00;;;;;;;17.94;63.03;101797.28;7361350;19;20002;-62
2022/07/15 05:38:24;;;;;;;0.00;0.00;;;;;;;18.03;62.73;101810.16;7370766;19;20010;-61
2022/07/15 05:40:50;;;;;;;0.00;0.00;;;;;;;18.04;62.96;101806.59;7369013;19;20020;-62
2022/07/15 05:43:15;;;;;;;0.00;0.00;;;;;;;18.06;62.92;101816.22;7371328;19;20041;-62
2022/07/15 05:45:41;;;;;;;0.00;0.00;;;;;;;18.06;62.41;101810.94;7368359;19;20026;-62
2022/07/15 05:48:07;;;;;;;0.10;0.10;;;;;;;17.98;62.62;101806.81;7368749;19;20010;-62
2022/07/15 05:50:33;;;;;;;0.00;0.00;;;;;;;18.10;62.38;101822.25;7369198;19;20010;-61
2022/07/15 05:52:59;;;;;;;0.00;0.00;;;;;;;18.04;63.04;101810.09;7370953;19;20002;-62
2022/07/15 05:55:24;;;;;;;0.00;0.00;;;;;;;18.12;63.29;101823.06;7369788;19;19999;-62
2022/07/15 05:57:49;;;;;;;0.10;0.10;;;;;;;18.12;63.19;101831.84;7365512;19;20018;-61
2022/07/15 06:00:15;;;;;;;0.05;0.05;;;;;;;18.12;63.29;101820.41;7368308;19;20076;-61
2022/07/15 06:02:41;;;;;;;0.00;0.00;;;;;;;18.14;62.84;101835.28;7369583;19;20025;-61
2022/07/15 06:05:08;;;;;;;0.10;0.10;;;;;;;18.18;63.39;101829.91;7367587;19;20010;-62
2022/07/15 06:07:35;;;;;;;0.00;0.00;;;;;;;18.21;62.90;101833.28;7370513;19;20084;-61
2022/07/15 06:10:00;;;;;;;0.10;0.10;;;;;;;18.23;63.11;101830.59;7365643;19;20006;-61
2022/07/15 06:12:26;;;;;;;0.00;0.00;;;;;;;18.30;62.93;101840.03;7370707;19;20046;-62
2022/07/15 06:14:51;;;;;;;0.00;0.00;;;;;;;18.26;63.11;101820.78;7368861;19;20360;-62
2022/07/15 06:17:17;;;;;;;0.00;0.00;;;;;;;18.34;62.96;101826.63;7368814;19;20064;-62
2022/07/15 06:19:42;;;;;;;0.00;0.00;;;;;;;18.15;62.53;101789.44;7368300;19;20017;-62
2022/07/15 06:22:08;;;;;;;0.03;0.03;;;;;;;18.44;62.63;101837.72;7370196;19;20098;-62
2022/07/15 06:24:33;;;;;;;0.00;0.00;;;;;;;18.47;62.56;101836.75;7367783;19;20011;-62
2022/07/15 06:26:58;;;;;;;0.00;0.00;;;;;;;18.50;62.86;101831.34;7368576;19;20014;-62
2022/07/15 06:29:24;;;;;;;0.10;0.10;;;;;;;18.51;62.65;101839.25;7368231;19;20010;-62
2022/07/15 06:31:49;;;;;;;0.10;0.10;;;;;;;18.55;62.45;101839.97;7370183;19;20002;-62
2022/07/15 06:34:15;;;;;;;0.08;0.08;;;;;;;18.51;62.70;101825.16;7366736;19;20026;-62
2022/07/15 06:36:41;;;;;;;0.00;0.00;;;;;;;18.62;62.56;101830.88;7369031;19;20010;-62
2022/07/15 06:39:06;;;;;;;0.00;0.00;;;;;;;18.62;62.21;101841.47;7368226;19;20013;-61
2022/07/15 06:41:32;;;;;;;0.08;0.08;;;;;;;18.66;62.49;101848.38;7368018;19;20023;-62
2022/07/15 06:43:58;;;;;;;0.10;0.10;;;;;;;18.68;61.65;101846.56;7366863;19;20048;-61
2022/07/15 06:46:24;;;;;;;0.00;0.00;;;;;;;18.69;62.35;101853.56;7365870;19;20006;-62
2022/07/15 06:48:49;;;;;;;0.05;0.05;;;;;;;18.65;62.17;101841.34;7364206;19;20075;-62
2022/07/15 06:51:15;;;;;;;0.00;0.00;;;;;;;18.71;62.17;101841.16;7366235;19;20033;-62
2022/07/15 06:53:40;;;;;;;0.00;0.00;;;;;;;18.72;61.71;101829.66;7365813;19;20002;-61
2022/07/15 06:56:06;;;;;;;0.05;0.05;;;;;;;18.75;61.84;101836.59;7365508;19;20493;-61
2022/07/15 06:58:31;;;;;;;0.10;0.10;;;;;;;18.78;61.67;101836.47;7363169;19;20019;-61
2022/07/15 07:00:56;;;;;;;0.10;0.10;;;;;;;18.79;62.28;101828.47;7365404;19;20002;-62
2022/07/15 07:03:22;;;;;;;0.10;0.10;;;;;;;18.80;61.96;101822.25;7361623;19;20022;-62
2022/07/15 07:05:47;;;;;;;0.03;0.03;;;;;;;18.82;61.73;101831.00;7363541;19;20097;-62
2022/07/15 07:08:13;;;;;;;0.10;0.10;;;;;;;18.91;61.85;101833.31;7363953;19;20093;-62
2022/07/15 07:10:38;;;;;;;0.08;0.08;;;;;;;18.97;61.43;101834.84;7365204;19;20422;-61
2022/07/15 07:13:03;;;;;;;0.08;0.08;;;;;;;19.04;61.60;101843.41;7357630;19;20034;-60
2022/07/15 07:15:29;;;;;;;0.00;0.00;;;;;;;19.08;61.46;101839.72;7363351;19;20015;-62
2022/07/15 07:17:54;;;;;;;0.00;0.00;;;;;;;19.11;60.98;101834.28;7361876;19;20030;-61
2022/07/15 07:20:20;;;;;;;0.10;0.10;;;;;;;19.12;61.33;101830.72;7361811;19;20018;-62
2022/07/15 07:22:45;;;;;;;0.10;0.10;;;;;;;19.17;61.23;101826.09;7361912;19;20121;-61
2022/07/15 07:25:11;;;;;;;0.00;0.00;;;;;;;19.19;60.99;101818.94;7360411;19;20446;-61
2022/07/15 07:27:36;;;;;;;0.10;0.10;;;;;;;19.25;61.22;101821.34;7358113;19;20006;-62
2022/07/15 07:30:04;;;;;;;0.10;0.10;;;;;;;19.35;61.54;101829.78;7355117;19;20014;-61
2022/07/15 07:32:30;;;;;;;0.10;0.10;;;;;;;19.32;60.97;101817.53;7352853;19;20829;-62
2022/07/15 07:34:55;;;;;;;0.10;0.10;;;;;;;19.48;60.42;101828.34;7361651;19;20014;-61
2022/07/15 07:37:21;;;;;;;0.10;0.10;;;;;;;19.54;60.19;101819.28;7361859;19;20002;-62
2022/07/15 07:39:47;;;;;;;0.10;0.10;;;;;;;19.59;60.10;101812.88;7356328;19;20010;-62
2022/07/15 07:42:13;;;;;;;0.03;0.03;;;;;;;19.69;60.12;101818.66;7361561;19;20031;-62
2022/07/15 07:44:39;;;;;;;0.10;0.10;;;;;;;19.74;60.18;101818.47;7361338;19;20026;-62
2022/07/15 07:47:04;;;;;;;0.00;0.00;;;;;;;19.85;59.30;101830.31;7360346;19;20042;-62
2022/07/15 07:49:30;;;;;;;0.00;0.00;;;;;;;19.93;59.59;101825.53;7360552;19;20070;-62
2022/07/15 07:51:55;;;;;;;0.00;0.00;;;;;;;20.05;59.29;101834.75;7364669;19;20022;-62
2022/07/15 07:54:21;;;;;;;0.10;0.10;;;;;;;20.09;58.42;101820.41;7361762;19;20363;-62
2022/07/15 07:56:47;;;;;;;0.10;0.10;;;;;;;20.20;58.15;101841.16;7360144;19;20011;-62
2022/07/15 07:59:12;;;;;;;0.03;0.03;;;;;;;20.26;58.47;101843.53;7362221;19;20047;-62
2022/07/15 08:01:38;;;;;;;0.10;0.10;;;;;;;20.32;57.79;101843.25;7364712;19;20067;-62
2022/07/15 08:04:04;;;;;;;0.10;0.10;;;;;;;20.38;58.05;101827.06;7365036;19;20680;-62
2022/07/15 08:06:29;;;;;;;0.00;0.00;;;;;;;20.45;56.98;101836.47;7362008;19;20756;-62
2022/07/15 08:08:55;;;;;;;0.10;0.10;;;;;;;20.53;56.79;101829.97;7361786;19;20093;-61
2022/07/15 08:11:21;;;;;;;0.10;0.10;;;;;;;20.62;57.15;101829.53;7366490;19;20442;-62
2022/07/15 08:13:47;;;;;;;0.10;0.10;;;;;;;20.65;57.21;101829.41;7364955;19;20010;-61
2022/07/15 08:16:12;;;;;;;0.03;0.03;;;;;;;20.76;56.40;101832.41;7359042;19;21165;-61
2022/07/15 08:18:38;;;;;;;0.03;0.03;;;;;;;20.84;56.30;101819.66;7360012;19;20027;-62
2022/07/15 08:21:04;;;;;;;0.00;0.00;;;;;;;20.92;55.57;101828.09;7365498;19;20033;-62
2022/07/15 08:23:32;;;;;;;0.00;0.00;;;;;;;21.00;55.86;101822.41;7363390;19;20014;-62
2022/07/15 08:25:58;;;;;;;0.00;0.00;;;;;;;21.06;54.92;101827.44;7364395;19;20010;-62
2022/07/15 08:28:24;;;;;;;0.00;0.00;;;;;;;21.09;54.85;101813.16;7361100;19;20014;-61
2022/07/15 08:30:50;;;;;;;0.10;0.10;;;;;;;21.22;54.43;101830.19;7364047;19;20019;-62
2022/07/15 08:33:16;;;;;;;0.05;0.05;;;;;;;21.31;53.70;101827.09;7361180;19;20111;-62
2022/07/15 08:35:41;;;;;;;0.10;0.10;;;;;;;21.41;53.96;101824.84;7364248;19;20034;-62
2022/07/15 08:38:08;;;;;;;0.10;0.10;;;;;;;21.52;54.00;101821.66;7363743;19;20006;-62
2022/07/15 08:40:35;;;;;;;0.10;0.10;;;;;;;21.65;53.89;101828.09;7361495;19;20010;-61
2022/07/15 08:43:01;;;;;;;0.00;0.00;;;;;;;21.74;52.64;101816.94;7361551;19;20497;-61
2022/07/15 08:45:27;;;;;;;0.05;0.05;;;;;;;21.84;52.31;101818.19;7361096;19;20095;-61
2022/07/15 08:47:53;;;;;;;0.00;0.00;;;;;;;21.89;52.29;101816.16;7365449;19;20052;-60
2022/07/15 08:50:19;;;;;;;0.10;0.10;;;;;;;21.94;51.35;101818.56;7364380;19;20102;-62
2022/07/15 08:52:46;;;;;;;0.00;0.00;;;;;;;22.00;51.15;101823.59;7363671;19;20047;-61
2022/07/15 08:55:13;;;;;;;0.00;0.00;;;;;;;21.94;50.93;101819.44;7364661;19;20014;-61
2022/07/15 08:57:39;;;;;;;0.03;0.03;;;;;;;22.10;50.72;101823.94;7365205;19;20014;-62
2022/07/15 09:00:09;;;;;;;0.10;0.10;;;;;;;22.18;50.57;101835.06;7363888;19;20010;-62
2022/07/15 09:02:37;;;;;;;0.00;0.00;;;;;;;22.22;50.95;101833.97;7364071;19;20025;-62
2022/07/15 09:05:18;;;;;;;0.00;0.00;;;;;;;22.34;51.18;101827.97;7348969;19;20010;-62
2022/07/15 09:07:57;;;;;;;0.03;0.03;;;;;;;22.42;50.62;101828.44;7355871;19;20621;-61
2022/07/15 09:10:43;;;;;;;0.00;0.00;;;;;;;22.47;49.85;101823.72;7351744;19;20610;-61
2022/07/15 09:13:25;;;;;;;0.00;0.00;;;;;;;22.65;51.22;101831.63;7354758;19;20352;-62
2022/07/15 09:15:51;;;;;;;0.10;0.10;;;;;;;22.70;50.23;101830.41;7357013;19;20905;-61
2022/07/15 09:18:21;;;;;;;0.00;0.00;;;;;;;22.86;50.21;101845.53;7355751;19;20037;-60
2022/07/15 09:20:48;;;;;;;0.10;0.10;;;;;;;22.83;49.48;101814.63;7356732;19;20018;-61
2022/07/15 09:23:20;;;;;;;0.00;0.00;;;;;;;23.11;48.71;101837.06;7356495;19;20544;-62
2022/07/15 09:25:49;;;;;;;0.08;0.08;;;;;;;23.25;48.40;101837.13;7355747;19;20034;-62
2022/07/15 09:28:15;;;;;;;0.10;0.10;;;;;;;23.38;49.13;101827.47;7354569;19;20565;-61
2022/07/15 09:36:09;;;;;;;;;;;;;;;23.92;49.37;101833.16;7357286;19;20014;-62
2022/07/15 09:38:46;;;;;;;0.05;0.05;;;;;;;23.97;46.41;101830.19;7355967;19;19944;-61
2022/07/15 09:41:33;;;;;;;0.10;0.10;;;;;;;24.08;46.40;101830.44;7356060;19;20031;-62
2022/07/15 09:44:03;;;;;;;0.10;0.10;;;;;;;24.26;45.49;101831.09;7357645;19;20121;-62
2022/07/15 09:46:53;;;;;;;0.10;0.10;;;;;;;24.49;46.95;101841.22;7353899;19;20097;-62
2022/07/15 09:49:22;;;;;;;0.10;0.10;;;;;;;24.59;46.05;101842.34;7356848;19;20782;-62
2022/07/15 09:51:55;;;;;;;0.10;0.10;;;;;;;24.64;45.22;101854.56;7351814;19;20010;-62
2022/07/15 09:54:33;;;;;;;0.10;0.10;;;;;;;24.55;45.88;101837.31;7355715;19;20007;-62
2022/07/15 09:57:01;;;;;;;0.10;0.10;;;;;;;24.56;45.22;101861.22;7356271;19;20007;-61
2022/07/15 09:59:29;;;;;;;0.10;0.10;;;;;;;24.45;45.33;101850.38;7356294;19;20015;-61
2022/07/15 10:01:55;;;;;;;0.10;0.10;;;;;;;24.47;45.06;101856.47;7354373;19;20937;-61
2022/07/15 10:04:24;;;;;;;0.00;0.00;;;;;;;24.37;45.64;101847.31;7354911;19;20019;-62
2022/07/15 10:06:51;;;;;;;0.10;0.10;;;;;;;24.48;45.13;101871.56;7355974;19;21553;-61
2022/07/15 10:09:26;;;;;;;0.10;0.10;;;;;;;24.57;45.02;101862.94;7356991;19;20966;-60
2022/07/15 10:11:59;;;;;;;0.10;0.10;;;;;;;24.64;45.44;101859.91;7354817;19;20022;-61
2022/07/15 10:14:42;;;;;;;0.10;0.10;;;;;;;24.78;45.42;101854.50;7356954;19;20123;-61
2022/07/15 10:17:38;;;;;;;0.10;0.10;;;;;;;25.27;46.06;101856.72;7352155;19;20022;-62
2022/07/15 10:20:30;;;;;;;0.00;0.00;;;;;;;25.70;45.75;101853.81;7253043;19;2004768;-62
2022/07/15 10:23:31;;;;;;;0.10;0.10;;;;;;;26.00;44.67;101857.09;7259100;19;2004973;-62
2022/07/15 10:26:26;;;;;;;0.10;0.10;;;;;;;26.30;45.03;101847.88;7260066;19;2004431;-61
2022/07/15 10:29:04;;;;;;;0.10;0.10;;;;;;;26.57;43.83;101855.81;7361331;19;20011;-61
2022/07/15 10:31:32;;;;;;;0.00;0.00;;;;;;;26.87;42.52;101847.38;7361163;19;20018;-61
2022/07/15 10:34:06;;;;;;;0.10;0.10;;;;;;;27.41;42.54;101852.28;7360441;19;20011;-61
2022/07/15 10:36:47;;;;;;;0.10;0.10;;;;;;;27.96;42.09;101852.59;7361195;19;20804;-62
2022/07/15 10:39:17;;;;;;;0.10;0.10;;;;;;;28.21;39.73;101851.53;7361744;19;20077;-61
2022/07/15 10:41:52;;;;;;;0.08;0.08;;;;;;;28.31;38.98;101860.56;7360913;19;20726;-61
2022/07/15 10:44:19;;;;;;;0.10;0.10;;;;;;;28.18;38.76;101858.88;7363175;19;20042;-61
2022/07/15 10:46:44;;;;;;;0.10;0.10;;;;;;;28.08;37.60;101852.50;7360160;19;21031;-61
2022/07/15 10:49:10;;;;;;;0.10;0.10;;;;;;;28.00;38.31;101864.81;7361853;19;20572;-61
2022/07/15 10:51:35;;;;;;;0.10;0.10;;;;;;;27.92;38.44;101862.72;7359752;19;20014;-61
2022/07/15 10:54:08;;;;;;;0.10;0.10;;;;;;;27.90;38.57;101864.69;7361406;19;20070;-62
2022/07/15 10:56:35;;;;;;;0.10;0.10;;;;;;;27.91;38.57;101856.50;7359318;19;20017;-62
2022/07/15 10:59:15;;;;;;;0.00;0.00;;;;;;;27.94;39.70;101860.78;7360874;19;20014;-61
2022/07/15 11:01:43;;;;;;;0.10;0.10;;;;;;;27.86;38.22;101864.06;7360983;19;20027;-62
2022/07/15 11:04:21;;;;;;;0.10;0.10;;;;;;;27.87;39.99;101873.81;7360716;19;20026;-62
2022/07/15 11:07:11;;;;;;;0.10;0.10;;;;;;;27.84;39.46;101875.91;7361042;19;20018;-61
2022/07/15 11:09:54;;;;;;;0.00;0.00;;;;;;;27.73;39.62;101863.31;7361911;19;20016;-62
2022/07/15 11:12:29;;;;;;;0.10;0.10;;;;;;;27.55;38.45;101860.16;7362574;19;20023;-61
2022/07/15 11:15:23;;;;;;;0.10;0.10;;;;;;;27.54;39.79;101874.53;7361927;19;20034;-61
2022/07/15 11:17:51;;;;;;;0.03;0.03;;;;;;;27.42;38.98;101878.13;7256621;19;2004463;-61
2022/07/15 11:20:38;;;;;;;0.00;0.00;;;;;;;27.39;38.52;101881.06;7361200;19;20010;-61
2022/07/15 11:23:06;;;;;;;0.10;0.10;;;;;;;27.35;39.37;101876.91;7360441;19;20114;-61
2022/07/15 11:25:38;;;;;;;0.00;0.00;;;;;;;27.37;39.47;101885.69;7361435;19;20038;-61
2022/07/15 11:28:15;;;;;;;0.00;0.00;;;;;;;27.35;39.65;101882.25;7358377;19;20023;-61
2022/07/15 11:30:41;;;;;;;0.00;0.00;;;;;;;27.29;39.34;101880.03;7359827;19;20786;-62
2022/07/15 11:33:17;;;;;;;0.10;0.10;;;;;;;27.48;40.35;101869.66;7358584;19;20033;-60
2022/07/15 11:35:52;;;;;;;0.10;0.10;;;;;;;27.74;40.31;101864.16;7359356;19;20018;-61